Time;durP1;ratioP1;P1;durP2;ratioP2;P2;SDS_P1;SDS_P2;PMS_P1;PMS_P2;Temp;Humidity;BMP_temperature;BMP_pressure;BME280_temperature;BME280_humidity;BME280_pressure;Samples;Min_cycle;Max_cycle;Signal;HPM_P1;HPM_P2
2022/10/22 00:02:26;;;;;;;17.85;7.68;;;12.30;99.90;;;;;;4985485;28;20084;-66
2022/10/22 00:04:52;;;;;;;12.73;6.68;;;12.30;99.90;;;;;;4986392;28;20092;-66
2022/10/22 00:07:19;;;;;;;12.23;8.02;;;12.20;99.90;;;;;;4985766;28;20396;-66
2022/10/22 00:09:46;;;;;;;14.77;7.68;;;12.20;99.90;;;;;;4986715;28;20038;-67
2022/10/22 00:12:13;;;;;;;26.13;7.95;;;12.20;99.90;;;;;;4986690;28;20050;-67
2022/10/22 00:14:39;;;;;;;15.75;6.72;;;12.10;99.90;;;;;;4986861;28;20045;-66
2022/10/22 00:17:05;;;;;;;11.45;6.63;;;12.10;99.90;;;;;;4985630;28;20397;-66
2022/10/22 00:19:30;;;;;;;15.65;6.93;;;12.10;99.90;;;;;;4987373;28;20121;-64
2022/10/22 00:21:57;;;;;;;19.45;7.18;;;12.10;99.90;;;;;;4990589;28;20125;-64
2022/10/22 00:24:24;;;;;;;13.98;7.20;;;12.20;99.90;;;;;;4990151;28;20396;-64
2022/10/22 00:26:49;;;;;;;12.82;6.82;;;12.10;99.90;;;;;;4979390;28;20050;-64
2022/10/22 00:29:18;;;;;;;20.85;7.00;;;12.10;99.90;;;;;;4990506;28;20073;-64
2022/10/22 00:31:48;;;;;;;9.02;6.93;;;12.10;99.90;;;;;;4994281;28;20047;-64
2022/10/22 00:34:16;;;;;;;13.32;6.68;;;12.00;99.90;;;;;;4990860;28;20048;-64
2022/10/22 00:36:42;;;;;;;12.07;6.55;;;11.90;99.90;;;;;;4989566;28;20060;-65
2022/10/22 00:39:07;;;;;;;16.27;6.85;;;11.90;99.90;;;;;;4991016;28;20057;-64
2022/10/22 00:41:33;;;;;;;11.00;6.25;;;11.80;99.90;;;;;;4988344;28;20531;-64
2022/10/22 00:44:02;;;;;;;11.10;6.22;;;11.80;99.90;;;;;;5005671;28;20065;-64
2022/10/22 00:46:28;;;;;;;11.82;6.72;;;11.70;99.90;;;;;;4989817;28;20085;-64
2022/10/22 00:48:57;;;;;;;16.02;6.80;;;11.70;99.90;;;;;;4989484;28;20046;-64
2022/10/22 00:51:27;;;;;;;14.70;6.97;;;11.70;99.90;;;;;;4988213;28;20101;-64
2022/10/22 00:54:00;;;;;;;18.60;6.93;;;11.70;99.90;;;;;;4982670;28;20053;-65
2022/10/22 00:56:26;;;;;;;28.35;6.30;;;11.70;99.90;;;;;;4990923;28;20073;-65
2022/10/22 00:58:55;;;;;;;36.45;5.88;;;11.70;99.90;;;;;;4989651;28;20034;-65
2022/10/22 01:01:30;;;;;;;16.85;5.13;;;11.70;99.90;;;;;;4993711;28;20068;-65
2022/10/22 01:03:55;;;;;;;11.10;5.03;;;11.60;99.90;;;;;;5007144;28;20052;-65
2022/10/22 01:06:27;;;;;;;6.53;5.35;;;11.60;99.90;;;;;;4990207;28;20050;-65
2022/10/22 01:09:17;;;;;;;13.55;5.93;;;11.50;99.90;;;;;;4990296;28;20130;-64
2022/10/22 01:11:51;;;;;;;12.07;5.32;;;11.50;99.90;;;;;;4989297;28;20092;-64
2022/10/22 01:14:20;;;;;;;7.05;5.53;;;11.50;99.90;;;;;;4989793;28;20863;-65
2022/10/22 01:17:06;;;;;;;12.32;6.32;;;11.50;99.90;;;;;;5004345;28;20051;-64
2022/10/22 01:19:54;;;;;;;16.92;5.93;;;11.50;99.90;;;;;;4989852;28;20081;-65
2022/10/22 01:22:39;;;;;;;11.13;5.68;;;11.50;99.90;;;;;;4988657;28;20414;-65
2022/10/22 01:25:15;;;;;;;13.85;5.70;;;11.50;99.90;;;;;;4988489;28;20054;-65
2022/10/22 01:28:18;;;;;;;19.95;5.57;;;11.50;99.90;;;;;;5005050;28;20370;-64
2022/10/22 01:30:45;;;;;;;13.57;5.30;;;11.50;99.90;;;;;;4989973;28;20129;-65
2022/10/22 01:33:14;;;;;;;9.82;5.50;;;11.50;99.90;;;;;;5004307;28;20053;-65
2022/10/22 01:35:42;;;;;;;12.65;5.45;;;11.50;99.90;;;;;;4988026;28;20062;-65
2022/10/22 01:38:13;;;;;;;7.38;4.72;;;11.50;99.90;;;;;;4988126;28;20477;-65
2022/10/22 01:40:39;;;;;;;7.30;5.05;;;11.50;99.90;;;;;;4989885;28;20460;-65
2022/10/22 01:43:07;;;;;;;12.60;4.78;;;11.50;99.90;;;;;;4988885;28;20129;-65
2022/10/22 01:45:37;;;;;;;7.35;5.20;;;11.50;99.90;;;;;;4988837;28;20039;-65
2022/10/22 01:48:06;;;;;;;8.07;4.90;;;11.50;99.90;;;;;;4989535;28;20072;-65
2022/10/22 01:50:47;;;;;;;15.48;4.75;;;11.50;99.90;;;;;;4988482;28;20042;-65
2022/10/22 01:53:31;;;;;;;15.75;5.32;;;11.50;99.90;;;;;;4989375;28;20046;-65
2022/10/22 01:56:08;;;;;;;8.73;4.07;;;11.50;99.90;;;;;;5003620;28;20120;-65
2022/10/22 01:58:34;;;;;;;14.98;4.68;;;11.40;99.90;;;;;;4988998;28;20129;-64
2022/10/22 02:01:14;;;;;;;5.38;3.88;;;11.40;99.90;;;;;;4990315;28;20543;-64
2022/10/22 02:04:21;;;;;;;11.15;4.32;;;11.30;99.90;;;;;;4988243;28;20489;-65
2022/10/22 02:06:50;;;;;;;10.57;4.38;;;11.30;99.90;;;;;;4987165;28;20047;-64
2022/10/22 02:09:20;;;;;;;4.82;3.58;;;11.30;99.90;;;;;;4988557;28;20042;-64
2022/10/22 02:11:47;;;;;;;10.30;4.72;;;11.30;99.90;;;;;;4988705;28;20046;-65
2022/10/22 02:14:17;;;;;;;14.13;5.35;;;11.30;99.90;;;;;;4989110;28;20118;-65
2022/10/22 02:16:44;;;;;;;6.30;4.37;;;11.30;99.90;;;;;;4988403;28;20169;-65
2022/10/22 02:19:22;;;;;;;11.55;4.35;;;11.30;99.90;;;;;;4988834;28;20100;-65
2022/10/22 02:21:48;;;;;;;12.40;4.97;;;11.30;99.90;;;;;;4988471;28;20054;-64
2022/10/22 02:24:14;;;;;;;13.60;4.15;;;11.30;99.90;;;;;;4988388;28;20113;-65
2022/10/22 02:26:53;;;;;;;5.13;4.38;;;11.30;99.90;;;;;;5003657;28;20125;-65
2022/10/22 02:29:49;;;;;;;9.38;5.00;;;11.30;99.90;;;;;;4987403;28;20061;-64
2022/10/22 02:32:20;;;;;;;7.97;4.82;;;11.30;99.90;;;;;;4959438;28;20055;-65
2022/10/22 02:34:47;;;;;;;12.82;4.53;;;11.30;99.90;;;;;;4985827;28;20117;-64
2022/10/22 02:37:13;;;;;;;9.90;4.50;;;11.30;99.90;;;;;;4988083;28;20051;-65
2022/10/22 02:39:39;;;;;;;9.63;4.25;;;11.30;99.90;;;;;;4988111;28;20345;-64
2022/10/22 02:42:05;;;;;;;10.32;5.00;;;11.40;99.90;;;;;;4986847;28;20043;-64
2022/10/22 02:44:30;;;;;;;8.93;4.68;;;11.40;99.90;;;;;;5003760;28;20053;-64
2022/10/22 02:46:57;;;;;;;12.70;4.55;;;11.40;99.90;;;;;;4987654;28;20046;-65
2022/10/22 02:49:23;;;;;;;9.35;4.95;;;11.40;99.90;;;;;;4988113;28;20307;-65
2022/10/22 02:51:49;;;;;;;7.50;4.38;;;11.50;99.90;;;;;;4986189;28;20101;-64
2022/10/22 02:54:14;;;;;;;11.32;5.10;;;11.50;99.90;;;;;;4986683;28;20054;-65
2022/10/22 02:56:40;;;;;;;9.75;4.78;;;11.50;99.90;;;;;;4988206;28;20109;-64
2022/10/22 02:59:06;;;;;;;13.82;4.93;;;11.50;99.90;;;;;;4987946;28;20468;-64
2022/10/22 03:01:32;;;;;;;8.52;4.63;;;11.50;99.90;;;;;;4975840;28;20471;-64
2022/10/22 03:03:57;;;;;;;13.48;5.00;;;11.50;99.90;;;;;;4987389;28;20050;-65
2022/10/22 03:06:23;;;;;;;18.00;4.88;;;11.50;99.90;;;;;;4987044;28;20112;-64
2022/10/22 03:08:49;;;;;;;26.48;5.32;;;11.50;99.90;;;;;;4987015;28;20042;-64
2022/10/22 03:11:14;;;;;;;10.20;5.20;;;11.50;99.90;;;;;;4987075;28;20526;-65
2022/10/22 03:13:40;;;;;;;17.70;5.85;;;11.50;99.90;;;;;;4987341;28;20070;-65
2022/10/22 03:16:06;;;;;;;9.25;4.97;;;11.50;99.90;;;;;;4987912;28;20042;-65
2022/10/22 03:18:31;;;;;;;10.75;5.88;;;11.50;99.90;;;;;;4987557;28;20053;-64
2022/10/22 03:21:05;;;;;;;12.32;5.32;;;11.50;99.90;;;;;;4986713;28;20034;-64
2022/10/22 03:23:31;;;;;;;9.88;5.40;;;11.50;99.90;;;;;;4987321;28;20046;-65
2022/10/22 03:25:58;;;;;;;9.38;4.97;;;11.50;99.90;;;;;;4987031;28;20066;-64
2022/10/22 03:28:25;;;;;;;8.02;5.32;;;11.50;99.90;;;;;;4987649;28;20045;-65
2022/10/22 03:30:51;;;;;;;7.18;4.85;;;11.50;99.90;;;;;;4985802;28;20426;-64
2022/10/22 03:33:17;;;;;;;9.63;5.38;;;11.40;99.90;;;;;;4985722;28;20051;-64
2022/10/22 03:35:45;;;;;;;5.82;4.72;;;11.40;99.90;;;;;;4986224;28;20128;-64
2022/10/22 03:38:13;;;;;;;11.73;5.10;;;11.40;99.90;;;;;;4986488;28;20610;-64
2022/10/22 03:40:41;;;;;;;6.68;4.90;;;11.40;99.90;;;;;;4986633;28;20051;-64
2022/10/22 03:43:07;;;;;;;9.65;5.20;;;11.40;99.90;;;;;;4986343;28;20118;-64
2022/10/22 03:45:32;;;;;;;12.15;5.35;;;11.30;99.90;;;;;;4987495;28;20125;-65
2022/10/22 03:47:58;;;;;;;14.80;5.15;;;11.30;99.90;;;;;;4986731;28;20408;-65
2022/10/22 03:50:24;;;;;;;21.65;5.32;;;11.30;99.90;;;;;;4987076;28;20081;-64
2022/10/22 03:52:49;;;;;;;11.45;5.32;;;11.30;99.90;;;;;;4986814;28;20056;-65
2022/10/22 03:55:15;;;;;;;16.00;5.10;;;11.30;99.90;;;;;;4986746;28;20443;-65
2022/10/22 03:57:41;;;;;;;17.17;5.38;;;11.20;99.90;;;;;;5002680;28;20045;-64
2022/10/22 04:00:08;;;;;;;12.40;5.40;;;11.20;99.90;;;;;;5001347;28;20076;-65
2022/10/22 04:02:34;;;;;;;6.78;4.95;;;11.20;99.90;;;;;;4992847;28;20043;-64
2022/10/22 04:04:59;;;;;;;14.27;5.57;;;11.20;99.90;;;;;;4984790;28;20054;-65
2022/10/22 04:07:25;;;;;;;12.77;6.10;;;11.20;99.90;;;;;;5002341;28;20369;-64
2022/10/22 04:09:51;;;;;;;7.30;5.10;;;11.20;99.90;;;;;;4986620;28;20053;-65
2022/10/22 04:12:17;;;;;;;11.23;5.00;;;11.20;99.90;;;;;;4986694;28;20058;-65
2022/10/22 04:14:43;;;;;;;11.70;4.95;;;11.20;99.90;;;;;;4986659;28;20038;-64
2022/10/22 04:17:08;;;;;;;6.50;4.55;;;11.20;99.90;;;;;;4986881;28;20074;-64
2022/10/22 04:19:34;;;;;;;10.98;4.88;;;11.10;99.90;;;;;;4985285;28;20057;-64
2022/10/22 04:22:00;;;;;;;13.02;4.65;;;11.10;99.90;;;;;;4986053;28;20045;-64
2022/10/22 04:24:26;;;;;;;11.80;5.32;;;11.10;99.90;;;;;;5001805;28;21686;-64
2022/10/22 04:26:55;;;;;;;10.10;5.13;;;11.00;99.90;;;;;;4986354;28;20432;-65
2022/10/22 04:29:22;;;;;;;12.10;5.40;;;10.90;99.90;;;;;;4986570;28;20520;-64
2022/10/22 04:31:47;;;;;;;11.60;5.32;;;10.90;99.90;;;;;;4987864;28;20046;-65
2022/10/22 04:34:13;;;;;;;13.43;5.78;;;10.90;99.90;;;;;;4984862;28;20505;-64
2022/10/22 04:36:39;;;;;;;18.38;5.68;;;10.90;99.90;;;;;;4986738;28;20535;-64
2022/10/22 04:39:05;;;;;;;14.40;5.38;;;10.90;99.90;;;;;;4986072;28;20054;-65
2022/10/22 04:41:33;;;;;;;16.70;5.97;;;10.90;99.90;;;;;;4987048;28;20069;-65
2022/10/22 04:44:00;;;;;;;16.40;5.82;;;10.80;99.90;;;;;;4986016;28;20057;-65
2022/10/22 04:46:28;;;;;;;13.38;6.13;;;10.80;99.90;;;;;;4986607;28;20050;-65
2022/10/22 04:48:54;;;;;;;12.38;5.63;;;10.80;99.90;;;;;;4986027;28;20030;-65
2022/10/22 04:51:22;;;;;;;12.77;5.20;;;10.80;99.90;;;;;;4986557;28;20056;-65
2022/10/22 04:53:47;;;;;;;8.88;5.50;;;10.80;99.90;;;;;;5002133;28;20054;-65
2022/10/22 04:56:32;;;;;;;11.18;5.50;;;10.80;99.90;;;;;;4985836;28;20531;-65
2022/10/22 04:59:00;;;;;;;11.50;5.40;;;10.80;99.90;;;;;;4975013;28;20050;-65
2022/10/22 05:01:31;;;;;;;10.02;5.30;;;10.80;99.90;;;;;;4990418;28;20488;-65
2022/10/22 05:04:00;;;;;;;13.77;5.97;;;10.80;99.90;;;;;;4987384;28;20077;-65
2022/10/22 05:06:26;;;;;;;10.63;5.60;;;10.70;99.90;;;;;;4989174;28;20459;-64
2022/10/22 05:08:55;;;;;;;8.13;5.65;;;10.70;99.90;;;;;;4989852;28;20138;-65
2022/10/22 05:11:24;;;;;;;13.25;5.60;;;10.70;99.90;;;;;;4990294;28;20057;-65
2022/10/22 05:13:50;;;;;;;9.23;5.40;;;10.70;99.90;;;;;;4989493;28;20480;-65
2022/10/22 05:16:16;;;;;;;17.00;5.95;;;10.70;99.90;;;;;;4972470;28;20341;-65
2022/10/22 05:18:43;;;;;;;11.20;5.53;;;10.60;99.90;;;;;;4989186;28;20117;-65
2022/10/22 05:21:12;;;;;;;15.27;6.13;;;10.70;99.90;;;;;;4989227;28;20195;-65
2022/10/22 05:23:38;;;;;;;11.77;5.90;;;10.70;99.90;;;;;;4987879;28;20046;-65
2022/10/22 05:26:06;;;;;;;14.07;5.47;;;10.70;99.90;;;;;;4988487;28;20050;-65
2022/10/22 05:28:33;;;;;;;11.00;6.00;;;10.70;99.90;;;;;;5004324;28;20070;-65
2022/10/22 05:31:00;;;;;;;15.13;6.72;;;10.80;99.90;;;;;;5004867;28;20054;-65
2022/10/22 05:33:26;;;;;;;11.73;6.10;;;10.80;99.90;;;;;;4989865;28;20026;-65
2022/10/22 05:35:52;;;;;;;17.30;7.07;;;10.80;99.90;;;;;;4988350;28;20125;-65
2022/10/22 05:38:18;;;;;;;10.38;5.57;;;10.80;99.90;;;;;;4989735;28;20121;-65
2022/10/22 05:40:44;;;;;;;9.95;6.55;;;10.80;99.90;;;;;;4988610;28;20533;-65
2022/10/22 05:43:10;;;;;;;12.52;6.47;;;10.80;99.90;;;;;;4989574;28;20035;-65
2022/10/22 05:45:41;;;;;;;14.48;6.40;;;10.90;99.90;;;;;;4989547;28;20092;-65
2022/10/22 05:48:08;;;;;;;12.07;6.35;;;10.90;99.90;;;;;;4988777;28;20084;-65
2022/10/22 05:50:37;;;;;;;13.13;6.53;;;10.90;99.90;;;;;;4989975;28;20070;-65
2022/10/22 05:53:04;;;;;;;16.00;6.38;;;10.90;99.90;;;;;;4988011;28;20571;-65
2022/10/22 05:55:35;;;;;;;9.88;5.72;;;10.90;99.90;;;;;;4989460;28;20038;-65
2022/10/22 05:58:02;;;;;;;22.58;6.95;;;11.00;99.90;;;;;;4988692;28;20481;-64
2022/10/22 06:00:28;;;;;;;14.63;5.82;;;11.00;99.90;;;;;;5004101;28;20073;-65
2022/10/22 06:02:54;;;;;;;12.85;5.78;;;11.00;99.90;;;;;;4995205;28;20464;-65
2022/10/22 06:05:20;;;;;;;8.88;5.68;;;11.00;99.90;;;;;;4988350;28;20072;-65
2022/10/22 06:07:46;;;;;;;11.60;6.38;;;10.90;99.90;;;;;;4988612;28;20050;-65
2022/10/22 06:10:17;;;;;;;14.75;6.28;;;11.00;99.90;;;;;;4987859;28;20045;-65
2022/10/22 06:12:43;;;;;;;14.65;6.18;;;10.90;99.90;;;;;;4988884;28;20039;-65
2022/10/22 06:15:11;;;;;;;19.27;5.97;;;10.90;99.90;;;;;;4988539;28;20061;-65
2022/10/22 06:17:37;;;;;;;16.98;6.38;;;10.90;99.90;;;;;;4988383;28;20514;-65
2022/10/22 06:20:03;;;;;;;17.25;6.05;;;10.90;99.90;;;;;;4989362;28;20043;-65
2022/10/22 06:22:29;;;;;;;11.43;6.00;;;10.90;99.90;;;;;;4988309;28;20077;-65
2022/10/22 06:24:54;;;;;;;11.27;6.57;;;10.90;99.90;;;;;;4988135;28;20080;-65
2022/10/22 06:27:20;;;;;;;13.13;6.15;;;10.90;99.90;;;;;;4987935;28;20365;-65
2022/10/22 06:29:47;;;;;;;10.77;5.90;;;10.90;99.90;;;;;;5003461;28;20500;-65
2022/10/22 06:32:13;;;;;;;16.55;6.25;;;10.90;99.90;;;;;;4988991;28;20042;-65
2022/10/22 06:34:38;;;;;;;11.55;6.13;;;10.90;99.90;;;;;;4988770;28;20050;-65
2022/10/22 06:37:04;;;;;;;17.77;6.85;;;10.90;99.90;;;;;;4987918;28;20303;-65
2022/10/22 06:39:30;;;;;;;18.92;6.45;;;11.00;99.90;;;;;;4986060;28;20084;-65
2022/10/22 06:41:56;;;;;;;22.10;6.70;;;11.00;99.90;;;;;;4986999;28;20050;-65
2022/10/22 06:44:22;;;;;;;14.25;6.20;;;11.10;99.90;;;;;;4987994;28;20046;-65
2022/10/22 06:46:51;;;;;;;23.17;6.90;;;11.10;99.90;;;;;;4988862;28;20042;-65
2022/10/22 06:49:18;;;;;;;15.27;7.25;;;11.10;99.90;;;;;;4970071;28;20042;-65
2022/10/22 06:51:44;;;;;;;14.45;6.72;;;11.10;99.90;;;;;;4986822;28;20186;-65
2022/10/22 06:54:11;;;;;;;21.40;7.53;;;11.20;99.90;;;;;;4986220;28;20054;-65
2022/10/22 06:56:37;;;;;;;21.02;6.53;;;11.20;99.90;;;;;;4987962;28;20097;-65
2022/10/22 06:59:03;;;;;;;22.73;7.28;;;11.30;99.90;;;;;;4988370;28;20068;-65
2022/10/22 07:01:31;;;;;;;18.17;6.18;;;11.30;99.90;;;;;;4987591;28;20034;-65
2022/10/22 07:03:57;;;;;;;20.42;7.00;;;11.30;99.90;;;;;;4984796;28;20042;-65
2022/10/22 07:06:25;;;;;;;18.48;7.25;;;11.40;99.90;;;;;;4986660;28;20169;-65
2022/10/22 07:08:52;;;;;;;21.50;7.32;;;11.50;99.90;;;;;;5002759;28;20401;-65
2022/10/22 07:11:19;;;;;;;21.48;7.57;;;11.50;99.90;;;;;;5002045;28;20092;-65
2022/10/22 07:13:45;;;;;;;16.45;7.60;;;11.60;99.90;;;;;;4987646;28;20054;-65
2022/10/22 07:16:12;;;;;;;18.98;7.65;;;11.70;99.90;;;;;;5002189;28;20034;-65
2022/10/22 07:18:38;;;;;;;23.55;8.52;;;11.80;99.90;;;;;;5002536;28;20050;-65
2022/10/22 07:21:05;;;;;;;15.77;7.72;;;11.90;99.90;;;;;;4987319;28;20485;-65
2022/10/22 07:23:31;;;;;;;20.10;8.63;;;12.10;99.90;;;;;;4983622;28;20073;-65
2022/10/22 07:25:58;;;;;;;13.32;7.68;;;12.10;99.90;;;;;;4984340;28;20081;-65
2022/10/22 07:28:24;;;;;;;14.90;7.07;;;12.20;99.90;;;;;;4984190;28;20030;-65
2022/10/22 07:30:50;;;;;;;21.20;7.88;;;12.20;99.90;;;;;;4986037;28;20705;-65
2022/10/22 07:33:15;;;;;;;17.88;7.78;;;12.30;99.90;;;;;;4987128;28;20038;-64
2022/10/22 07:35:42;;;;;;;27.75;8.20;;;12.30;99.90;;;;;;4986403;28;20144;-65
2022/10/22 07:38:08;;;;;;;19.83;7.80;;;12.40;99.90;;;;;;4985703;28;20061;-65
2022/10/22 07:40:34;;;;;;;16.50;8.05;;;12.40;99.90;;;;;;4986832;28;20038;-65
2022/10/22 07:43:01;;;;;;;21.58;8.40;;;12.50;99.90;;;;;;4987101;28;20508;-65
2022/10/22 07:45:27;;;;;;;24.27;8.63;;;12.60;99.90;;;;;;4986439;28;20443;-65
2022/10/22 07:47:52;;;;;;;23.98;8.05;;;12.70;99.90;;;;;;4987164;28;20118;-64
2022/10/22 07:50:18;;;;;;;19.38;8.55;;;12.90;99.90;;;;;;4986461;28;20049;-65
2022/10/22 07:52:44;;;;;;;18.98;8.75;;;13.10;99.90;;;;;;4985909;28;20177;-67
2022/10/22 07:55:10;;;;;;;22.85;8.65;;;13.20;99.90;;;;;;4985341;28;20136;-66
2022/10/22 07:57:36;;;;;;;19.30;7.97;;;13.30;99.90;;;;;;4985560;28;20046;-67
2022/10/22 08:00:04;;;;;;;23.73;8.55;;;13.40;99.90;;;;;;4986891;28;20054;-67
2022/10/22 08:02:30;;;;;;;20.20;8.00;;;13.40;99.90;;;;;;5007017;28;20038;-67
2022/10/22 08:04:56;;;;;;;22.40;7.72;;;13.40;99.90;;;;;;4986452;28;20050;-67
2022/10/22 08:07:22;;;;;;;18.20;8.25;;;13.50;99.90;;;;;;5000676;28;20054;-67
2022/10/22 08:09:48;;;;;;;21.58;8.30;;;13.50;99.90;;;;;;4984293;28;20082;-67
2022/10/22 08:12:14;;;;;;;19.60;8.40;;;13.50;99.90;;;;;;4978293;28;20132;-67
2022/10/22 08:14:39;;;;;;;23.02;7.78;;;13.50;99.90;;;;;;4982382;28;20054;-67
2022/10/22 08:17:05;;;;;;;15.70;7.45;;;13.50;99.90;;;;;;4983724;28;20129;-67
2022/10/22 08:19:31;;;;;;;18.13;7.28;;;13.50;99.90;;;;;;4983868;28;20416;-67
2022/10/22 08:21:57;;;;;;;14.25;7.43;;;13.50;99.90;;;;;;4985965;28;20050;-67
2022/10/22 08:24:25;;;;;;;22.70;7.82;;;13.50;99.90;;;;;;4985181;28;20477;-67
2022/10/22 08:26:53;;;;;;;19.05;7.78;;;13.60;99.90;;;;;;4981616;28;20054;-67
2022/10/22 08:29:21;;;;;;;16.77;7.40;;;13.50;99.90;;;;;;4985264;28;20104;-68
2022/10/22 08:31:47;;;;;;;17.92;6.93;;;13.60;99.90;;;;;;4982715;28;20231;-67
2022/10/22 08:34:13;;;;;;;18.58;7.10;;;13.60;99.90;;;;;;4984994;28;20042;-67
2022/10/22 08:36:39;;;;;;;19.10;6.53;;;13.60;99.90;;;;;;4983367;28;20057;-68
2022/10/22 08:39:04;;;;;;;16.83;6.75;;;13.70;99.90;;;;;;4983543;28;20485;-67
2022/10/22 08:41:35;;;;;;;24.65;6.75;;;13.70;99.90;;;;;;4987292;28;20085;-68
2022/10/22 08:44:06;;;;;;;21.75;6.82;;;13.70;99.90;;;;;;4988140;28;20046;-67
2022/10/22 08:46:56;;;;;;;19.35;7.20;;;13.80;99.90;;;;;;4987583;28;20042;-68
2022/10/22 08:49:32;;;;;;;16.17;6.93;;;13.90;99.90;;;;;;4981309;28;20039;-67
2022/10/22 08:51:59;;;;;;;15.13;6.15;;;13.90;99.90;;;;;;4988710;28;20137;-67
2022/10/22 08:54:48;;;;;;;20.15;5.95;;;14.00;99.90;;;;;;4988996;28;20057;-67
2022/10/22 08:57:48;;;;;;;15.02;5.88;;;14.00;99.90;;;;;;4989473;28;20057;-68
2022/10/22 09:00:28;;;;;;;13.48;5.70;;;14.00;99.90;;;;;;5002737;28;20436;-67
2022/10/22 09:03:18;;;;;;;17.30;5.10;;;14.00;99.90;;;;;;4990112;28;20074;-68
2022/10/22 09:05:51;;;;;;;19.77;5.47;;;14.10;99.90;;;;;;4988593;28;20133;-67
2022/10/22 09:08:19;;;;;;;13.63;4.35;;;14.10;99.90;;;;;;4988778;28;20050;-67
2022/10/22 09:11:00;;;;;;;18.80;5.00;;;14.10;99.90;;;;;;4987054;28;20385;-68
2022/10/22 09:13:26;;;;;;;16.33;5.07;;;14.20;99.90;;;;;;4988604;28;20093;-67
2022/10/22 09:15:59;;;;;;;19.55;5.07;;;14.30;99.90;;;;;;4987814;28;20050;-67
2022/10/22 09:18:43;;;;;;;17.30;4.03;;;14.40;99.90;;;;;;4988837;28;20487;-68
2022/10/22 09:21:36;;;;;;;19.52;4.65;;;14.50;99.90;;;;;;4988447;28;20384;-68
2022/10/22 09:24:24;;;;;;;16.02;4.32;;;14.70;99.90;;;;;;4989059;28;20034;-67
2022/10/22 09:26:50;;;;;;;14.30;4.25;;;14.90;99.90;;;;;;4981258;28;20137;-67
2022/10/22 09:29:22;;;;;;;18.42;4.72;;;15.00;99.90;;;;;;4971252;28;20125;-68
2022/10/22 09:31:47;;;;;;;13.95;4.05;;;15.10;99.90;;;;;;4995159;28;20052;-68
2022/10/22 09:34:18;;;;;;;12.93;4.57;;;15.20;99.90;;;;;;4985116;28;20121;-67
2022/10/22 09:36:44;;;;;;;14.60;4.18;;;15.30;99.90;;;;;;4987106;28;20639;-68
2022/10/22 09:39:25;;;;;;;17.42;4.85;;;15.30;99.90;;;;;;4989418;28;20046;-68
2022/10/22 09:41:51;;;;;;;13.07;4.38;;;15.30;99.90;;;;;;4981821;28;20042;-67
2022/10/22 09:44:18;;;;;;;12.93;4.00;;;15.40;99.90;;;;;;4988182;28;20460;-68
2022/10/22 09:46:44;;;;;;;9.73;3.47;;;15.40;99.90;;;;;;4987157;28;20042;-67
2022/10/22 09:49:20;;;;;;;12.25;3.97;;;15.50;99.90;;;;;;4988638;28;20051;-67
2022/10/22 09:51:46;;;;;;;11.57;4.05;;;15.50;99.90;;;;;;4988231;28;20050;-67
2022/10/22 09:54:37;;;;;;;12.93;3.75;;;15.60;99.90;;;;;;4986928;28;20267;-67
2022/10/22 09:57:11;;;;;;;10.23;3.45;;;15.70;99.90;;;;;;4987554;28;20054;-67
2022/10/22 09:59:40;;;;;;;11.18;4.00;;;15.80;99.90;;;;;;4986939;28;20370;-67
2022/10/22 10:02:15;;;;;;;17.58;4.10;;;15.90;99.90;;;;;;4992724;28;20117;-67
2022/10/22 10:04:46;;;;;;;25.08;4.88;;;16.00;99.90;;;;;;4987194;28;20050;-67
2022/10/22 10:07:17;;;;;;;14.02;3.17;;;16.10;99.90;;;;;;4987853;28;20050;-67
2022/10/22 10:09:43;;;;;;;17.63;3.92;;;16.20;99.90;;;;;;4987489;28;20046;-67
2022/10/22 10:12:23;;;;;;;20.63;4.55;;;16.20;99.90;;;;;;4985752;28;20050;-68
2022/10/22 10:15:13;;;;;;;10.88;3.40;;;16.20;99.90;;;;;;4981375;28;20046;-67
2022/10/22 10:17:39;;;;;;;;;;;16.20;99.90;;;;;;4986405;28;20443;-67
2022/10/22 10:20:30;;;;;;;11.60;2.97;;;16.30;99.90;;;;;;4998801;28;19925;-67
2022/10/22 10:23:01;;;;;;;11.90;3.67;;;16.20;99.90;;;;;;4985539;28;20053;-67
2022/10/22 10:25:36;;;;;;;16.13;3.60;;;16.20;99.90;;;;;;4999458;28;20046;-68
2022/10/22 10:28:28;;;;;;;7.70;2.85;;;16.20;99.90;;;;;;4985501;28;20046;-67
2022/10/22 10:31:14;;;;;;;13.05;3.38;;;16.30;99.90;;;;;;4984226;28;20085;-67
2022/10/22 10:33:43;;;;;;;24.67;3.85;;;16.30;99.90;;;;;;4982658;28;20308;-67
2022/10/22 10:36:32;;;;;;;13.35;3.25;;;16.30;99.90;;;;;;4984670;28;20196;-67
2022/10/22 10:39:03;;;;;;;10.80;2.63;;;16.20;99.90;;;;;;4982969;28;20158;-67
2022/10/22 10:41:54;;;;;;;9.57;3.08;;;16.20;99.90;;;;;;4984496;28;20377;-68
2022/10/22 10:44:34;;;;;;;11.93;2.53;;;16.10;99.90;;;;;;4984381;28;20105;-67
2022/10/22 10:47:24;;;;;;;17.98;2.92;;;16.10;99.90;;;;;;4983727;28;20584;-67
2022/10/22 10:49:54;;;;;;;12.18;3.22;;;16.10;99.90;;;;;;4984548;28;20140;-67
2022/10/22 10:52:43;;;;;;;10.52;3.03;;;16.10;99.90;;;;;;4983878;28;20043;-68
2022/10/22 10:55:32;;;;;;;7.38;2.85;;;16.10;99.90;;;;;;4981513;28;20050;-68
2022/10/22 10:58:19;;;;;;;13.27;2.47;;;16.00;99.90;;;;;;4977847;28;20439;-67
2022/10/22 11:01:02;;;;;;;13.65;2.40;;;16.00;99.90;;;;;;4997970;28;20515;-68
2022/10/22 11:03:52;;;;;;;13.85;2.40;;;15.90;99.90;;;;;;4984271;28;20104;-67
2022/10/22 11:06:20;;;;;;;7.38;2.20;;;15.90;99.90;;;;;;4984087;28;20078;-68
2022/10/22 11:09:20;;;;;;;18.90;2.67;;;15.90;99.90;;;;;;4984702;28;20042;-67
2022/10/22 11:12:01;;;;;;;10.95;2.38;;;15.90;99.90;;;;;;4971009;28;20047;-67
2022/10/22 11:14:39;;;;;;;10.30;3.38;;;16.00;99.90;;;;;;4986535;28;20463;-67
2022/10/22 11:17:16;;;;;;;10.57;2.63;;;16.00;99.90;;;;;;4984585;28;20077;-67
2022/10/22 11:20:18;;;;;;;15.70;3.03;;;16.00;99.90;;;;;;4986586;28;20186;-68
2022/10/22 11:23:16;;;;;;;11.10;2.97;;;16.10;99.90;;;;;;4986768;28;21405;-67
2022/10/22 11:25:45;;;;;;;13.90;2.63;;;16.10;99.90;;;;;;4981667;28;20412;-67
2022/10/22 11:28:40;;;;;;;14.63;3.13;;;16.10;99.90;;;;;;4986581;28;20476;-67
2022/10/22 11:31:16;;;;;;;13.80;3.03;;;16.10;99.90;;;;;;4985252;28;20046;-67
2022/10/22 11:33:51;;;;;;;7.72;2.40;;;16.10;99.90;;;;;;4996998;28;20060;-67
2022/10/22 11:36:21;;;;;;;16.95;3.72;;;16.00;99.90;;;;;;4985018;28;20046;-67
2022/10/22 11:38:47;;;;;;;16.45;3.55;;;16.00;99.90;;;;;;4983571;28;20034;-67
2022/10/22 11:41:16;;;;;;;12.85;2.90;;;15.90;99.90;;;;;;4986133;28;20049;-67
2022/10/22 11:44:22;;;;;;;15.05;2.95;;;15.90;99.90;;;;;;4995672;28;20042;-67
2022/10/22 11:46:58;;;;;;;13.10;2.67;;;15.90;99.90;;;;;;4965056;28;20741;-67
2022/10/22 11:49:45;;;;;;;16.63;3.10;;;15.90;99.90;;;;;;4970456;28;20051;-67
2022/10/22 11:52:29;;;;;;;13.57;2.97;;;15.90;99.90;;;;;;4975198;28;20042;-67
2022/10/22 11:54:59;;;;;;;15.27;3.20;;;15.90;99.90;;;;;;4986431;28;20082;-68
2022/10/22 11:57:28;;;;;;;9.75;3.17;;;15.80;99.90;;;;;;4986002;28;20038;-67
2022/10/22 11:59:59;;;;;;;10.20;2.60;;;15.80;99.90;;;;;;5000432;28;20054;-68
2022/10/22 12:02:28;;;;;;;7.53;2.80;;;15.80;99.90;;;;;;4990444;28;21786;-67
2022/10/22 12:05:23;;;;;;;11.95;3.30;;;15.80;99.90;;;;;;4983735;28;20512;-67
2022/10/22 12:07:58;;;;;;;12.57;3.28;;;15.70;99.90;;;;;;4964929;28;20081;-67
2022/10/22 12:10:47;;;;;;;13.32;3.42;;;15.80;99.90;;;;;;4986414;28;20056;-67
2022/10/22 12:13:29;;;;;;;7.57;2.97;;;15.90;99.90;;;;;;4970906;28;20051;-68
2022/10/22 12:15:58;;;;;;;8.60;3.38;;;16.00;99.90;;;;;;4998804;28;20404;-67
2022/10/22 12:18:30;;;;;;;11.30;3.17;;;16.10;99.90;;;;;;4985484;28;20050;-67
2022/10/22 12:20:56;;;;;;;13.50;3.60;;;16.20;99.90;;;;;;4982468;28;20117;-67
2022/10/22 12:23:30;;;;;;;15.57;3.67;;;16.20;99.90;;;;;;4981655;28;20046;-67
2022/10/22 12:25:56;;;;;;;11.10;3.50;;;16.30;99.90;;;;;;4979123;28;20043;-67
2022/10/22 12:28:22;;;;;;;19.70;3.05;;;16.20;99.90;;;;;;4984505;28;20300;-67
2022/10/22 12:30:47;;;;;;;14.55;3.90;;;16.20;99.90;;;;;;4976950;28;20145;-67
2022/10/22 12:33:22;;;;;;;12.60;2.88;;;16.20;99.90;;;;;;4990970;28;20049;-67
2022/10/22 12:35:51;;;;;;;11.43;3.58;;;16.20;99.90;;;;;;4982767;28;20470;-67
2022/10/22 12:38:20;;;;;;;12.20;3.25;;;16.20;99.90;;;;;;4984147;28;20039;-67
2022/10/22 12:40:47;;;;;;;16.83;4.63;;;16.10;99.90;;;;;;4983933;28;20042;-67
2022/10/22 12:43:15;;;;;;;8.50;2.90;;;16.00;99.90;;;;;;4982495;28;20053;-67
2022/10/22 12:45:47;;;;;;;10.18;3.67;;;16.00;99.90;;;;;;4982516;28;20046;-67
2022/10/22 12:48:35;;;;;;;14.55;3.28;;;15.90;99.90;;;;;;4983773;28;20077;-67
2022/10/22 12:51:02;;;;;;;13.10;3.80;;;15.90;99.90;;;;;;4978211;28;20053;-67
2022/10/22 12:53:33;;;;;;;11.20;3.20;;;15.90;99.90;;;;;;4998673;28;20121;-67
2022/10/22 12:56:03;;;;;;;11.30;3.30;;;15.90;99.90;;;;;;5000638;28;20137;-67
2022/10/22 12:58:41;;;;;;;11.88;3.65;;;16.00;99.90;;;;;;4985624;28;20069;-66